Terminal Aerodrome Forecast
Issued by NWS

Home | Current Version | Previous Version | Text Only | Print | Product List | Glossary Off
Versions: 1 2 3 4 5 6 7 8 9 10 11 12 13 14 15 16 17 18

233
FTUS43 KEAX 300520
TAFSTJ
TAF
KSTJ 300520Z 3006/3106 08014G22KT P6SM VCSH BKN008 OVC080
     FM301100 02010KT 2SM -SHRA OVC008
     FM302100 01013KT P6SM VCSH OVC010
     FM310500 34009KT P6SM BKN008=

USA.gov is the U.S. government's official web portal to all federal, state and local government web resources and services.